sensor_id;sensor_type;location;lat;lon;timestamp;pressure;altitude;pressure_sealevel;temperature;humidity
61528;BME280;47395;42.032;-8.634;2023-11-21T00:01:37;76726.03;;;-148.63;37.58
61528;BME280;47395;42.032;-8.634;2023-11-21T00:03:38;76724.03;;;-148.63;36.94
61528;BME280;47395;42.032;-8.634;2023-11-21T00:05:40;76654.00;;;-148.63;37.07
61528;BME280;47395;42.032;-8.634;2023-11-21T00:07:42;76718.03;;;-148.63;37.10
61528;BME280;47395;42.032;-8.634;2023-11-21T00:09:43;76694.03;;;-148.63;37.12
61528;BME280;47395;42.032;-8.634;2023-11-21T00:11:44;76754.06;;;-148.63;37.45
61528;BME280;47395;42.032;-8.634;2023-11-21T00:13:45;76756.06;;;-148.63;37.95
61528;BME280;47395;42.032;-8.634;2023-11-21T00:15:47;76676.00;;;-148.63;36.58
61528;BME280;47395;42.032;-8.634;2023-11-21T00:17:48;76676.00;;;-148.63;37.70
61528;BME280;47395;42.032;-8.634;2023-11-21T00:19:49;76664.00;;;-148.63;37.47
61528;BME280;47395;42.032;-8.634;2023-11-21T00:21:50;76710.03;;;-148.63;37.74
61528;BME280;47395;42.032;-8.634;2023-11-21T00:23:51;76742.03;;;-148.63;38.71
61528;BME280;47395;42.032;-8.634;2023-11-21T00:25:52;76696.03;;;-148.63;37.57
61528;BME280;47395;42.032;-8.634;2023-11-21T00:27:53;76692.00;;;-148.63;37.41
61528;BME280;47395;42.032;-8.634;2023-11-21T00:29:54;76678.00;;;-148.63;37.73
61528;BME280;47395;42.032;-8.634;2023-11-21T00:31:55;76782.06;;;-148.63;37.49
61528;BME280;47395;42.032;-8.634;2023-11-21T00:33:57;76806.09;;;-148.63;38.13
61528;BME280;47395;42.032;-8.634;2023-11-21T00:35:58;76633.97;;;-148.63;37.19
61528;BME280;47395;42.032;-8.634;2023-11-21T00:37:59;76646.00;;;-148.63;36.57
61528;BME280;47395;42.032;-8.634;2023-11-21T00:40:01;76642.00;;;-148.63;38.11
61528;BME280;47395;42.032;-8.634;2023-11-21T00:42:06;76680.00;;;-148.63;38.36
61528;BME280;47395;42.032;-8.634;2023-11-21T00:44:07;76646.00;;;-148.63;36.35
61528;BME280;47395;42.032;-8.634;2023-11-21T00:46:11;76635.97;;;-148.63;36.80
61528;BME280;47395;42.032;-8.634;2023-11-21T00:48:13;76658.00;;;-148.63;36.08
61528;BME280;47395;42.032;-8.634;2023-11-21T00:50:14;76710.03;;;-148.63;36.84
61528;BME280;47395;42.032;-8.634;2023-11-21T00:52:16;76639.97;;;-148.63;37.14
61528;BME280;47395;42.032;-8.634;2023-11-21T00:54:17;76629.97;;;-148.63;36.30
61528;BME280;47395;42.032;-8.634;2023-11-21T00:56:18;76627.97;;;-148.63;36.71
61528;BME280;47395;42.032;-8.634;2023-11-21T00:58:19;76696.03;;;-148.63;37.33
61528;BME280;47395;42.032;-8.634;2023-11-21T01:00:20;76688.00;;;-148.63;37.65
61528;BME280;47395;42.032;-8.634;2023-11-21T01:02:21;76637.97;;;-148.63;36.70
61528;BME280;47395;42.032;-8.634;2023-11-21T01:04:23;76593.97;;;-148.63;36.09
61528;BME280;47395;42.032;-8.634;2023-11-21T01:06:24;76637.97;;;-148.63;36.95
61528;BME280;47395;42.032;-8.634;2023-11-21T01:08:25;76644.00;;;-148.63;37.48
61528;BME280;47395;42.032;-8.634;2023-11-21T01:10:26;76700.03;;;-148.63;37.27
61528;BME280;47395;42.032;-8.634;2023-11-21T01:12:28;76656.00;;;-148.63;37.92
61528;BME280;47395;42.032;-8.634;2023-11-21T01:14:29;76698.03;;;-148.63;37.17
61528;BME280;47395;42.032;-8.634;2023-11-21T01:16:31;76682.00;;;-148.63;37.47
61528;BME280;47395;42.032;-8.634;2023-11-21T01:18:36;76595.97;;;-148.63;36.46
61528;BME280;47395;42.032;-8.634;2023-11-21T01:20:37;76650.00;;;-148.63;37.43
61528;BME280;47395;42.032;-8.634;2023-11-21T01:22:38;76734.03;;;-148.63;37.46
61528;BME280;47395;42.032;-8.634;2023-11-21T01:24:39;76698.03;;;-148.63;37.34
61528;BME280;47395;42.032;-8.634;2023-11-21T01:26:40;76704.03;;;-148.63;37.46
61528;BME280;47395;42.032;-8.634;2023-11-21T01:28:41;76692.00;;;-148.63;37.03
61528;BME280;47395;42.032;-8.634;2023-11-21T01:30:42;76734.03;;;-148.63;37.46
61528;BME280;47395;42.032;-8.634;2023-11-21T01:32:43;76794.06;;;-148.63;38.53
61528;BME280;47395;42.032;-8.634;2023-11-21T01:34:44;76750.06;;;-148.63;39.03
61528;BME280;47395;42.032;-8.634;2023-11-21T01:36:46;76718.03;;;-148.63;37.65
61528;BME280;47395;42.032;-8.634;2023-11-21T01:38:47;76666.00;;;-148.63;37.45
61528;BME280;47395;42.032;-8.634;2023-11-21T01:40:49;76656.00;;;-148.63;37.47
61528;BME280;47395;42.032;-8.634;2023-11-21T01:42:49;76674.00;;;-148.63;37.63
61528;BME280;47395;42.032;-8.634;2023-11-21T01:44:50;76730.03;;;-148.63;38.98
61528;BME280;47395;42.032;-8.634;2023-11-21T01:46:52;76758.06;;;-148.63;37.78
61528;BME280;47395;42.032;-8.634;2023-11-21T01:48:54;76776.06;;;-148.63;39.36
61528;BME280;47395;42.032;-8.634;2023-11-21T01:50:55;76786.06;;;-148.63;38.75
61528;BME280;47395;42.032;-8.634;2023-11-21T01:52:57;76726.03;;;-148.63;38.25
61528;BME280;47395;42.032;-8.634;2023-11-21T01:54:59;76772.06;;;-148.63;37.94
61528;BME280;47395;42.032;-8.634;2023-11-21T01:57:01;76784.06;;;-148.63;38.69
61528;BME280;47395;42.032;-8.634;2023-11-21T01:59:07;76746.03;;;-148.63;37.92
61528;BME280;47395;42.032;-8.634;2023-11-21T02:01:08;76762.06;;;-148.63;38.74
61528;BME280;47395;42.032;-8.634;2023-11-21T02:03:11;76758.06;;;-148.63;38.17
61528;BME280;47395;42.032;-8.634;2023-11-21T02:05:14;76846.09;;;-148.63;38.47
61528;BME280;47395;42.032;-8.634;2023-11-21T02:07:19;76728.03;;;-148.63;38.26
61528;BME280;47395;42.032;-8.634;2023-11-21T02:09:24;76746.03;;;-148.63;38.25
61528;BME280;47395;42.032;-8.634;2023-11-21T02:11:26;76782.06;;;-148.63;38.65
61528;BME280;47395;42.032;-8.634;2023-11-21T02:13:27;76728.03;;;-148.63;37.58
61528;BME280;47395;42.032;-8.634;2023-11-21T02:15:29;76782.06;;;-148.63;37.58
61528;BME280;47395;42.032;-8.634;2023-11-21T02:17:30;76704.03;;;-148.63;37.95
61528;BME280;47395;42.032;-8.634;2023-11-21T02:19:33;76712.03;;;-148.63;37.27
61528;BME280;47395;42.032;-8.634;2023-11-21T02:21:34;76714.03;;;-148.63;38.13
61528;BME280;47395;42.032;-8.634;2023-11-21T02:23:36;76676.00;;;-148.63;37.57
61528;BME280;47395;42.032;-8.634;2023-11-21T02:25:39;76680.00;;;-148.63;36.96
61528;BME280;47395;42.032;-8.634;2023-11-21T02:27:39;76639.97;;;-148.63;37.67
61528;BME280;47395;42.032;-8.634;2023-11-21T02:29:41;76698.03;;;-148.63;37.35
61528;BME280;47395;42.032;-8.634;2023-11-21T02:31:43;76694.03;;;-148.63;37.01
61528;BME280;47395;42.032;-8.634;2023-11-21T02:33:48;76652.00;;;-148.63;37.01
61528;BME280;47395;42.032;-8.634;2023-11-21T02:35:49;76692.00;;;-148.63;37.00
61528;BME280;47395;42.032;-8.634;2023-11-21T02:37:50;76670.00;;;-148.63;37.01
61528;BME280;47395;42.032;-8.634;2023-11-21T02:39:50;76658.00;;;-148.63;36.92
61528;BME280;47395;42.032;-8.634;2023-11-21T02:41:52;76698.03;;;-148.63;37.26
61528;BME280;47395;42.032;-8.634;2023-11-21T02:43:54;76742.03;;;-148.63;37.65
61528;BME280;47395;42.032;-8.634;2023-11-21T02:45:55;76744.03;;;-148.63;38.08
61528;BME280;47395;42.032;-8.634;2023-11-21T02:47:58;76780.06;;;-148.63;38.35
61528;BME280;47395;42.032;-8.634;2023-11-21T02:49:59;76744.03;;;-148.63;37.87
61528;BME280;47395;42.032;-8.634;2023-11-21T02:52:01;76760.06;;;-148.63;37.68
61528;BME280;47395;42.032;-8.634;2023-11-21T02:54:02;76782.06;;;-148.63;38.41
61528;BME280;47395;42.032;-8.634;2023-11-21T02:56:08;76846.09;;;-148.63;38.45
61528;BME280;47395;42.032;-8.634;2023-11-21T02:58:09;76808.09;;;-148.63;38.75
61528;BME280;47395;42.032;-8.634;2023-11-21T03:00:10;76806.09;;;-148.63;39.05
61528;BME280;47395;42.032;-8.634;2023-11-21T03:02:13;76850.13;;;-148.63;39.31
61528;BME280;47395;42.032;-8.634;2023-11-21T03:04:14;76776.06;;;-148.63;38.17
61528;BME280;47395;42.032;-8.634;2023-11-21T03:06:19;76772.06;;;-148.63;38.18
61528;BME280;47395;42.032;-8.634;2023-11-21T03:08:20;76760.06;;;-148.63;38.18
61528;BME280;47395;42.032;-8.634;2023-11-21T03:10:22;76836.09;;;-148.63;38.77
61528;BME280;47395;42.032;-8.634;2023-11-21T03:12:23;76898.13;;;-148.63;38.85
61528;BME280;47395;42.032;-8.634;2023-11-21T03:14:24;76800.06;;;-148.63;38.50
61528;BME280;47395;42.032;-8.634;2023-11-21T03:16:25;76908.16;;;-148.63;38.96
61528;BME280;47395;42.032;-8.634;2023-11-21T03:18:26;76940.16;;;-148.63;39.87
61528;BME280;47395;42.032;-8.634;2023-11-21T03:20:29;76846.09;;;-148.63;40.25
61528;BME280;47395;42.032;-8.634;2023-11-21T03:22:31;76938.16;;;-148.63;42.17
61528;BME280;47395;42.032;-8.634;2023-11-21T03:24:33;76830.09;;;-148.63;40.18
61528;BME280;47395;42.032;-8.634;2023-11-21T03:26:34;76798.06;;;-148.63;39.41
61528;BME280;47395;42.032;-8.634;2023-11-21T03:28:34;76798.06;;;-148.63;38.77
61528;BME280;47395;42.032;-8.634;2023-11-21T03:30:37;76770.06;;;-148.63;38.80
61528;BME280;47395;42.032;-8.634;2023-11-21T03:32:38;76776.06;;;-148.63;38.36
61528;BME280;47395;42.032;-8.634;2023-11-21T03:34:55;76770.06;;;-148.63;38.10
61528;BME280;47395;42.032;-8.634;2023-11-21T03:36:57;76784.06;;;-148.63;38.61
61528;BME280;47395;42.032;-8.634;2023-11-21T03:38:57;76774.06;;;-148.63;38.19
61528;BME280;47395;42.032;-8.634;2023-11-21T03:40:58;76820.09;;;-148.63;39.18
61528;BME280;47395;42.032;-8.634;2023-11-21T03:42:59;76894.13;;;-148.63;39.59
61528;BME280;47395;42.032;-8.634;2023-11-21T03:45:00;76808.09;;;-148.63;38.64
61528;BME280;47395;42.032;-8.634;2023-11-21T03:47:00;76822.09;;;-148.63;38.95
61528;BME280;47395;42.032;-8.634;2023-11-21T03:49:01;76788.06;;;-148.63;38.68
61528;BME280;47395;42.032;-8.634;2023-11-21T03:51:02;76788.06;;;-148.63;38.64
61528;BME280;47395;42.032;-8.634;2023-11-21T03:53:03;76792.06;;;-148.63;38.45
61528;BME280;47395;42.032;-8.634;2023-11-21T03:55:04;76814.09;;;-148.63;38.19
61528;BME280;47395;42.032;-8.634;2023-11-21T03:57:05;76838.09;;;-148.63;39.27
61528;BME280;47395;42.032;-8.634;2023-11-21T03:59:06;76818.09;;;-148.63;39.10
61528;BME280;47395;42.032;-8.634;2023-11-21T04:01:07;76790.06;;;-148.63;38.17
61528;BME280;47395;42.032;-8.634;2023-11-21T04:03:07;76856.13;;;-148.63;38.69
61528;BME280;47395;42.032;-8.634;2023-11-21T04:05:08;76854.13;;;-148.63;39.04
61528;BME280;47395;42.032;-8.634;2023-11-21T04:07:09;76856.13;;;-148.63;39.06
61528;BME280;47395;42.032;-8.634;2023-11-21T04:09:11;76806.09;;;-148.63;38.78
61528;BME280;47395;42.032;-8.634;2023-11-21T04:11:13;76838.09;;;-148.63;39.05
61528;BME280;47395;42.032;-8.634;2023-11-21T04:13:13;76872.13;;;-148.63;39.52
61528;BME280;47395;42.032;-8.634;2023-11-21T04:15:14;76750.06;;;-148.63;39.35
61528;BME280;47395;42.032;-8.634;2023-11-21T04:17:18;76724.03;;;-148.63;38.24
61528;BME280;47395;42.032;-8.634;2023-11-21T04:19:19;76750.06;;;-148.63;37.81
61528;BME280;47395;42.032;-8.634;2023-11-21T04:21:21;76694.03;;;-148.63;37.74
61528;BME280;47395;42.032;-8.634;2023-11-21T04:23:21;76694.03;;;-148.63;37.39
61528;BME280;47395;42.032;-8.634;2023-11-21T04:25:22;76702.03;;;-148.63;37.43
61528;BME280;47395;42.032;-8.634;2023-11-21T04:27:23;76726.03;;;-148.63;37.51
61528;BME280;47395;42.032;-8.634;2023-11-21T04:29:24;76758.06;;;-148.63;37.65
61528;BME280;47395;42.032;-8.634;2023-11-21T04:31:25;76774.06;;;-148.63;38.03
61528;BME280;47395;42.032;-8.634;2023-11-21T04:33:26;76846.09;;;-148.63;38.12
61528;BME280;47395;42.032;-8.634;2023-11-21T04:35:27;76896.13;;;-148.63;39.44
61528;BME280;47395;42.032;-8.634;2023-11-21T04:37:28;76836.09;;;-148.63;38.87
61528;BME280;47395;42.032;-8.634;2023-11-21T04:39:28;76854.13;;;-148.63;38.66
61528;BME280;47395;42.032;-8.634;2023-11-21T04:41:29;76850.13;;;-148.63;38.69
61528;BME280;47395;42.032;-8.634;2023-11-21T04:43:32;76872.13;;;-148.63;39.42
61528;BME280;47395;42.032;-8.634;2023-11-21T04:45:32;76872.13;;;-148.63;38.94
61528;BME280;47395;42.032;-8.634;2023-11-21T04:47:33;76826.09;;;-148.63;38.56
61528;BME280;47395;42.032;-8.634;2023-11-21T04:49:34;76886.13;;;-148.63;38.46
61528;BME280;47395;42.032;-8.634;2023-11-21T04:51:35;76882.13;;;-148.63;38.91
61528;BME280;47395;42.032;-8.634;2023-11-21T04:53:36;76840.09;;;-148.63;38.53
61528;BME280;47395;42.032;-8.634;2023-11-21T04:55:37;76832.09;;;-148.63;38.53
61528;BME280;47395;42.032;-8.634;2023-11-21T04:57:38;76834.09;;;-148.63;38.42
61528;BME280;47395;42.032;-8.634;2023-11-21T04:59:41;76830.09;;;-148.63;38.50
61528;BME280;47395;42.032;-8.634;2023-11-21T05:03:52;76908.16;;;-148.63;39.06
61528;BME280;47395;42.032;-8.634;2023-11-21T05:05:53;76894.13;;;-148.63;39.38
61528;BME280;47395;42.032;-8.634;2023-11-21T05:07:54;76888.13;;;-148.63;39.42
61528;BME280;47395;42.032;-8.634;2023-11-21T05:09:55;76850.13;;;-148.63;38.88
61528;BME280;47395;42.032;-8.634;2023-11-21T05:11:56;76866.13;;;-148.63;39.21
61528;BME280;47395;42.032;-8.634;2023-11-21T05:13:57;76892.13;;;-148.63;39.81
61528;BME280;47395;42.032;-8.634;2023-11-21T05:15:59;76826.09;;;-148.63;38.91
61528;BME280;47395;42.032;-8.634;2023-11-21T05:18:00;76886.13;;;-148.63;39.22
61528;BME280;47395;42.032;-8.634;2023-11-21T05:20:00;76884.13;;;-148.63;39.11
61528;BME280;47395;42.032;-8.634;2023-11-21T05:22:04;76886.13;;;-148.63;39.14
61528;BME280;47395;42.032;-8.634;2023-11-21T05:24:06;76868.13;;;-148.63;38.77
61528;BME280;47395;42.032;-8.634;2023-11-21T05:26:07;76860.13;;;-148.63;38.65
61528;BME280;47395;42.032;-8.634;2023-11-21T05:28:08;76884.13;;;-148.63;38.57
61528;BME280;47395;42.032;-8.634;2023-11-21T05:30:09;76984.19;;;-148.63;40.13
61528;BME280;47395;42.032;-8.634;2023-11-21T05:32:12;76918.16;;;-148.63;39.30
61528;BME280;47395;42.032;-8.634;2023-11-21T05:34:13;76946.16;;;-148.63;39.74
61528;BME280;47395;42.032;-8.634;2023-11-21T05:36:14;76952.19;;;-148.63;39.74
61528;BME280;47395;42.032;-8.634;2023-11-21T05:38:15;77004.22;;;-148.63;41.26
61528;BME280;47395;42.032;-8.634;2023-11-21T05:40:18;76990.19;;;-148.63;40.55
61528;BME280;47395;42.032;-8.634;2023-11-21T05:42:19;77004.22;;;-148.63;40.27
61528;BME280;47395;42.032;-8.634;2023-11-21T05:44:21;76976.19;;;-148.63;40.39
61528;BME280;47395;42.032;-8.634;2023-11-21T05:46:22;76900.16;;;-148.63;39.68
61528;BME280;47395;42.032;-8.634;2023-11-21T05:48:23;76974.19;;;-148.63;40.18
61528;BME280;47395;42.032;-8.634;2023-11-21T05:50:24;76964.19;;;-148.63;40.91
61528;BME280;47395;42.032;-8.634;2023-11-21T05:52:24;76982.19;;;-148.63;40.10
61528;BME280;47395;42.032;-8.634;2023-11-21T05:54:25;76998.22;;;-148.63;39.87
61528;BME280;47395;42.032;-8.634;2023-11-21T05:56:26;77062.25;;;-148.63;40.68
61528;BME280;47395;42.032;-8.634;2023-11-21T05:58:27;76994.19;;;-148.63;40.17
61528;BME280;47395;42.032;-8.634;2023-11-21T06:00:28;77058.25;;;-148.63;41.04
61528;BME280;47395;42.032;-8.634;2023-11-21T06:02:29;76982.19;;;-148.63;40.77
61528;BME280;47395;42.032;-8.634;2023-11-21T06:04:30;76958.19;;;-148.63;40.94
61528;BME280;47395;42.032;-8.634;2023-11-21T06:06:31;76960.19;;;-148.63;40.33
61528;BME280;47395;42.032;-8.634;2023-11-21T06:08:32;76950.19;;;-148.63;40.08
61528;BME280;47395;42.032;-8.634;2023-11-21T06:10:33;76930.16;;;-148.63;40.02
61528;BME280;47395;42.032;-8.634;2023-11-21T06:12:34;77058.25;;;-148.63;42.08
61528;BME280;47395;42.032;-8.634;2023-11-21T06:14:36;76974.19;;;-148.63;40.55
61528;BME280;47395;42.032;-8.634;2023-11-21T06:16:37;77000.22;;;-148.63;40.03
61528;BME280;47395;42.032;-8.634;2023-11-21T06:18:38;76990.19;;;-148.63;40.18
61528;BME280;47395;42.032;-8.634;2023-11-21T06:20:39;77024.22;;;-148.63;41.10
61528;BME280;47395;42.032;-8.634;2023-11-21T06:22:44;77006.22;;;-148.63;41.26
61528;BME280;47395;42.032;-8.634;2023-11-21T06:24:45;77000.22;;;-148.63;40.87
61528;BME280;47395;42.032;-8.634;2023-11-21T06:26:46;77026.22;;;-148.63;41.85
61528;BME280;47395;42.032;-8.634;2023-11-21T06:28:49;76990.19;;;-148.63;40.97
61528;BME280;47395;42.032;-8.634;2023-11-21T06:30:51;77036.22;;;-148.63;40.54
61528;BME280;47395;42.032;-8.634;2023-11-21T06:32:53;77002.22;;;-148.63;40.58
61528;BME280;47395;42.032;-8.634;2023-11-21T06:34:56;76944.16;;;-148.63;39.79
61528;BME280;47395;42.032;-8.634;2023-11-21T06:37:00;76956.19;;;-148.63;39.68
61528;BME280;47395;42.032;-8.634;2023-11-21T06:39:01;77012.22;;;-148.63;40.60
61528;BME280;47395;42.032;-8.634;2023-11-21T06:41:02;76986.19;;;-148.63;41.47
61528;BME280;47395;42.032;-8.634;2023-11-21T06:43:03;77050.25;;;-148.63;40.86
61528;BME280;47395;42.032;-8.634;2023-11-21T06:45:07;76958.19;;;-148.63;40.26
61528;BME280;47395;42.032;-8.634;2023-11-21T06:47:11;76998.22;;;-148.63;40.52
61528;BME280;47395;42.032;-8.634;2023-11-21T06:49:12;76988.19;;;-148.63;40.96
61528;BME280;47395;42.032;-8.634;2023-11-21T06:51:13;77014.22;;;-148.63;40.15
61528;BME280;47395;42.032;-8.634;2023-11-21T06:53:14;76888.13;;;-148.63;39.21
61528;BME280;47395;42.032;-8.634;2023-11-21T06:55:15;76898.13;;;-148.63;39.35
61528;BME280;47395;42.032;-8.634;2023-11-21T06:57:16;76956.19;;;-148.63;40.39
61528;BME280;47395;42.032;-8.634;2023-11-21T06:59:17;77018.22;;;-148.63;39.96
61528;BME280;47395;42.032;-8.634;2023-11-21T07:01:18;77000.22;;;-148.63;40.00
61528;BME280;47395;42.032;-8.634;2023-11-21T07:03:19;76966.19;;;-148.63;41.52
61528;BME280;47395;42.032;-8.634;2023-11-21T07:05:23;76974.19;;;-148.63;40.46
61528;BME280;47395;42.032;-8.634;2023-11-21T07:07:24;76974.19;;;-148.63;39.60
61528;BME280;47395;42.032;-8.634;2023-11-21T07:09:24;76972.19;;;-148.63;39.73
61528;BME280;47395;42.032;-8.634;2023-11-21T07:11:26;76900.16;;;-148.63;39.18
61528;BME280;47395;42.032;-8.634;2023-11-21T07:13:27;76946.16;;;-148.63;38.93
61528;BME280;47395;42.032;-8.634;2023-11-21T07:15:28;77010.22;;;-148.63;41.16
61528;BME280;47395;42.032;-8.634;2023-11-21T07:17:28;76894.13;;;-148.63;40.65
61528;BME280;47395;42.032;-8.634;2023-11-21T07:19:29;76840.09;;;-148.63;39.05
61528;BME280;47395;42.032;-8.634;2023-11-21T07:21:30;76836.09;;;-148.63;38.50
61528;BME280;47395;42.032;-8.634;2023-11-21T07:23:31;76764.06;;;-148.63;37.93
61528;BME280;47395;42.032;-8.634;2023-11-21T07:25:32;76770.06;;;-148.63;37.94
61528;BME280;47395;42.032;-8.634;2023-11-21T07:27:34;76778.06;;;-148.63;37.83
61528;BME280;47395;42.032;-8.634;2023-11-21T07:29:36;76800.06;;;-148.63;37.67
61528;BME280;47395;42.032;-8.634;2023-11-21T07:31:37;76788.06;;;-148.63;37.77
61528;BME280;47395;42.032;-8.634;2023-11-21T07:33:38;76898.13;;;-148.63;38.77
61528;BME280;47395;42.032;-8.634;2023-11-21T07:35:39;76848.09;;;-148.63;37.95
61528;BME280;47395;42.032;-8.634;2023-11-21T07:37:40;76944.16;;;-148.63;38.60
61528;BME280;47395;42.032;-8.634;2023-11-21T07:39:41;76902.16;;;-148.63;39.00
61528;BME280;47395;42.032;-8.634;2023-11-21T07:41:42;76878.13;;;-148.63;38.34
61528;BME280;47395;42.032;-8.634;2023-11-21T07:43:48;76880.13;;;-148.63;38.25
61528;BME280;47395;42.032;-8.634;2023-11-21T07:45:50;76906.16;;;-148.63;38.25
61528;BME280;47395;42.032;-8.634;2023-11-21T07:47:51;76882.13;;;-148.63;38.39
61528;BME280;47395;42.032;-8.634;2023-11-21T07:49:53;76840.09;;;-148.63;37.92
61528;BME280;47395;42.032;-8.634;2023-11-21T07:51:56;76854.13;;;-148.63;38.05
61528;BME280;47395;42.032;-8.634;2023-11-21T07:53:57;76794.06;;;-148.63;38.01
61528;BME280;47395;42.032;-8.634;2023-11-21T07:55:58;76850.13;;;-148.63;37.95
61528;BME280;47395;42.032;-8.634;2023-11-21T07:58:02;76832.09;;;-148.63;38.91
61528;BME280;47395;42.032;-8.634;2023-11-21T08:00:05;76866.13;;;-148.63;38.44
61528;BME280;47395;42.032;-8.634;2023-11-21T08:02:12;76938.16;;;-148.63;38.50
61528;BME280;47395;42.032;-8.634;2023-11-21T08:04:13;76880.13;;;-148.63;38.04
61528;BME280;47395;42.032;-8.634;2023-11-21T08:06:14;76848.09;;;-148.63;37.93
61528;BME280;47395;42.032;-8.634;2023-11-21T08:08:15;76878.13;;;-148.63;37.94
61528;BME280;47395;42.032;-8.634;2023-11-21T08:10:19;76892.13;;;-148.63;38.12
61528;BME280;47395;42.032;-8.634;2023-11-21T08:12:21;76864.13;;;-148.63;38.42
61528;BME280;47395;42.032;-8.634;2023-11-21T08:14:22;76958.19;;;-148.63;39.49
61528;BME280;47395;42.032;-8.634;2023-11-21T08:16:25;76954.19;;;-148.63;39.74
61528;BME280;47395;42.032;-8.634;2023-11-21T08:18:26;77038.22;;;-148.63;39.21
61528;BME280;47395;42.032;-8.634;2023-11-21T08:20:27;76934.16;;;-148.63;38.95
61528;BME280;47395;42.032;-8.634;2023-11-21T08:22:28;76938.16;;;-148.63;38.96
61528;BME280;47395;42.032;-8.634;2023-11-21T08:24:29;76880.13;;;-148.63;38.87
61528;BME280;47395;42.032;-8.634;2023-11-21T08:26:30;76944.16;;;-148.63;39.23
61528;BME280;47395;42.032;-8.634;2023-11-21T08:28:31;76904.16;;;-148.63;39.05
61528;BME280;47395;42.032;-8.634;2023-11-21T08:30:32;76902.16;;;-148.63;39.63
61528;BME280;47395;42.032;-8.634;2023-11-21T08:32:33;76808.09;;;-148.63;38.90
61528;BME280;47395;42.032;-8.634;2023-11-21T08:34:34;76826.09;;;-148.63;37.81
61528;BME280;47395;42.032;-8.634;2023-11-21T08:36:35;76856.13;;;-148.63;37.76
61528;BME280;47395;42.032;-8.634;2023-11-21T08:38:42;76854.13;;;-148.63;37.82
61528;BME280;47395;42.032;-8.634;2023-11-21T08:40:42;76820.09;;;-148.63;37.31
61528;BME280;47395;42.032;-8.634;2023-11-21T08:42:48;76854.13;;;-148.63;37.68
61528;BME280;47395;42.032;-8.634;2023-11-21T08:44:53;76900.16;;;-148.63;38.10
61528;BME280;47395;42.032;-8.634;2023-11-21T08:46:56;76876.13;;;-148.63;38.55
61528;BME280;47395;42.032;-8.634;2023-11-21T08:49:03;76904.16;;;-148.63;38.16
61528;BME280;47395;42.032;-8.634;2023-11-21T08:51:04;76794.06;;;-148.63;37.25
61528;BME280;47395;42.032;-8.634;2023-11-21T08:53:05;76627.97;;;-148.63;36.14
61528;BME280;47395;42.032;-8.634;2023-11-21T08:55:07;76475.91;;;-148.63;34.69
61528;BME280;47395;42.032;-8.634;2023-11-21T08:57:12;76317.81;;;-148.63;33.35
61528;BME280;47395;42.032;-8.634;2023-11-21T08:59:13;76231.78;;;-148.63;31.69
61528;BME280;47395;42.032;-8.634;2023-11-21T09:01:17;76079.69;;;-148.63;30.36
61528;BME280;47395;42.032;-8.634;2023-11-21T09:03:18;76031.69;;;-148.63;30.36
61528;BME280;47395;42.032;-8.634;2023-11-21T09:07:23;75849.59;;;-148.63;28.84
61528;BME280;47395;42.032;-8.634;2023-11-21T09:09:23;75817.59;;;-148.63;28.46
61528;BME280;47395;42.032;-8.634;2023-11-21T09:11:25;75847.59;;;-148.63;28.46
61528;BME280;47395;42.032;-8.634;2023-11-21T09:13:26;75765.59;;;-148.63;28.21
61528;BME280;47395;42.032;-8.634;2023-11-21T09:15:27;75639.53;;;-148.63;27.47
61528;BME280;47395;42.032;-8.634;2023-11-21T09:17:28;75577.50;;;-148.63;26.82
61528;BME280;47395;42.032;-8.634;2023-11-21T09:19:32;75603.53;;;-148.63;26.85
61528;BME280;47395;42.032;-8.634;2023-11-21T09:21:38;75649.53;;;-148.63;27.14
61528;BME280;47395;42.032;-8.634;2023-11-21T09:23:45;75471.47;;;-148.63;26.39
61528;BME280;47395;42.032;-8.634;2023-11-21T09:25:46;75567.50;;;-148.63;26.15
61528;BME280;47395;42.032;-8.634;2023-11-21T09:27:50;75485.50;;;-148.63;26.21
61528;BME280;47395;42.032;-8.634;2023-11-21T09:29:50;75445.47;;;-148.63;26.02
61528;BME280;47395;42.032;-8.634;2023-11-21T09:31:52;75577.50;;;-148.63;26.77
61528;BME280;47395;42.032;-8.634;2023-11-21T09:33:55;75445.47;;;-148.63;26.52
61528;BME280;47395;42.032;-8.634;2023-11-21T09:35:56;75547.50;;;-148.63;26.86
61528;BME280;47395;42.032;-8.634;2023-11-21T09:37:59;75475.50;;;-148.63;26.44
61528;BME280;47395;42.032;-8.634;2023-11-21T09:40:02;75335.44;;;-148.63;25.35
61528;BME280;47395;42.032;-8.634;2023-11-21T09:42:13;75541.50;;;-148.63;26.15
61528;BME280;47395;42.032;-8.634;2023-11-21T09:44:24;75533.50;;;-148.63;26.30
61528;BME280;47395;42.032;-8.634;2023-11-21T09:46:29;75565.50;;;-148.63;26.48
61528;BME280;47395;42.032;-8.634;2023-11-21T09:48:32;75639.53;;;-148.63;26.41
61528;BME280;47395;42.032;-8.634;2023-11-21T09:50:36;75507.50;;;-148.63;25.63
61528;BME280;47395;42.032;-8.634;2023-11-21T09:53:19;75501.50;;;-148.63;25.48
61528;BME280;47395;42.032;-8.634;2023-11-21T09:55:21;75437.47;;;-148.63;26.07
61528;BME280;47395;42.032;-8.634;2023-11-21T09:57:24;75481.50;;;-148.63;25.63
61528;BME280;47395;42.032;-8.634;2023-11-21T09:59:30;75405.47;;;-148.63;25.31
61528;BME280;47395;42.032;-8.634;2023-11-21T10:01:31;75401.47;;;-148.63;24.82
61528;BME280;47395;42.032;-8.634;2023-11-21T10:03:36;75449.47;;;-148.63;25.16
61528;BME280;47395;42.032;-8.634;2023-11-21T10:05:40;75455.47;;;-148.63;26.02
61528;BME280;47395;42.032;-8.634;2023-11-21T10:07:46;75455.47;;;-148.63;25.29
61528;BME280;47395;42.032;-8.634;2023-11-21T10:09:49;75513.50;;;-148.63;26.33
61528;BME280;47395;42.032;-8.634;2023-11-21T10:11:52;75401.47;;;-148.63;25.01
61528;BME280;47395;42.032;-8.634;2023-11-21T10:13:54;75295.44;;;-148.63;25.18
61528;BME280;47395;42.032;-8.634;2023-11-21T10:15:58;75451.47;;;-148.63;25.26
61528;BME280;47395;42.032;-8.634;2023-11-21T10:18:04;75327.44;;;-148.63;25.07
61528;BME280;47395;42.032;-8.634;2023-11-21T10:20:14;75277.44;;;-148.63;24.81
61528;BME280;47395;42.032;-8.634;2023-11-21T10:22:16;75243.44;;;-148.63;24.76
61528;BME280;47395;42.032;-8.634;2023-11-21T10:24:20;75343.44;;;-148.63;24.90
61528;BME280;47395;42.032;-8.634;2023-11-21T10:26:22;75609.53;;;-148.63;26.51